sensor_id;sensor_type;location;lat;lon;timestamp;P1;durP1;ratioP1;P2;durP2;ratioP2
18188;SDS011;9219;50.396;8.546;2023-09-30T00:01:39;23.10;;;11.20;;
18188;SDS011;9219;50.396;8.546;2023-09-30T00:04:06;22.00;;;11.07;;
18188;SDS011;9219;50.396;8.546;2023-09-30T00:06:33;25.03;;;11.83;;
18188;SDS011;9219;50.396;8.546;2023-09-30T00:09:00;18.77;;;10.67;;
18188;SDS011;9219;50.396;8.546;2023-09-30T00:11:27;25.17;;;12.73;;
18188;SDS011;9219;50.396;8.546;2023-09-30T00:20:15;25.70;;;11.77;;
18188;SDS011;9219;50.396;8.546;2023-09-30T00:22:43;24.23;;;11.73;;
18188;SDS011;9219;50.396;8.546;2023-09-30T00:25:10;23.10;;;12.07;;
18188;SDS011;9219;50.396;8.546;2023-09-30T00:27:37;26.10;;;12.47;;
18188;SDS011;9219;50.396;8.546;2023-09-30T00:30:05;30.60;;;12.20;;
18188;SDS011;9219;50.396;8.546;2023-09-30T00:32:33;39.73;;;12.67;;
18188;SDS011;9219;50.396;8.546;2023-09-30T00:35:00;25.10;;;11.83;;
18188;SDS011;9219;50.396;8.546;2023-09-30T00:41:11;49.37;;;15.97;;
18188;SDS011;9219;50.396;8.546;2023-09-30T00:43:39;27.63;;;12.30;;
18188;SDS011;9219;50.396;8.546;2023-09-30T00:46:18;97.67;;;17.40;;
18188;SDS011;9219;50.396;8.546;2023-09-30T00:48:50;50.37;;;13.97;;
18188;SDS011;9219;50.396;8.546;2023-09-30T00:51:18;31.70;;;13.30;;
18188;SDS011;9219;50.396;8.546;2023-09-30T00:53:45;32.00;;;14.30;;
18188;SDS011;9219;50.396;8.546;2023-09-30T00:56:13;52.90;;;16.03;;
18188;SDS011;9219;50.396;8.546;2023-09-30T01:02:24;39.87;;;14.23;;
18188;SDS011;9219;50.396;8.546;2023-09-30T01:04:51;69.70;;;16.10;;
18188;SDS011;9219;50.396;8.546;2023-09-30T01:07:19;48.60;;;14.93;;
18188;SDS011;9219;50.396;8.546;2023-09-30T01:09:47;45.63;;;15.33;;
18188;SDS011;9219;50.396;8.546;2023-09-30T01:12:14;52.50;;;15.77;;
18188;SDS011;9219;50.396;8.546;2023-09-30T01:14:42;170.23;;;25.00;;
18188;SDS011;9219;50.396;8.546;2023-09-30T01:17:09;107.93;;;19.77;;
18188;SDS011;9219;50.396;8.546;2023-09-30T01:26:02;33.07;;;16.20;;
18188;SDS011;9219;50.396;8.546;2023-09-30T01:28:29;36.77;;;14.83;;
18188;SDS011;9219;50.396;8.546;2023-09-30T01:30:57;43.27;;;15.27;;
18188;SDS011;9219;50.396;8.546;2023-09-30T01:33:24;36.27;;;14.60;;
18188;SDS011;9219;50.396;8.546;2023-09-30T01:35:51;33.47;;;13.73;;
18188;SDS011;9219;50.396;8.546;2023-09-30T01:38:18;31.50;;;14.03;;
18188;SDS011;9219;50.396;8.546;2023-09-30T01:40:46;30.73;;;14.30;;
18188;SDS011;9219;50.396;8.546;2023-09-30T01:45:53;26.77;;;12.37;;
18188;SDS011;9219;50.396;8.546;2023-09-30T01:48:21;30.10;;;14.10;;
18188;SDS011;9219;50.396;8.546;2023-09-30T01:50:48;24.83;;;13.47;;
18188;SDS011;9219;50.396;8.546;2023-09-30T01:53:15;24.93;;;12.73;;
18188;SDS011;9219;50.396;8.546;2023-09-30T01:55:42;28.27;;;13.27;;
18188;SDS011;9219;50.396;8.546;2023-09-30T01:58:10;31.20;;;14.20;;
18188;SDS011;9219;50.396;8.546;2023-09-30T02:00:37;25.93;;;12.93;;
18188;SDS011;9219;50.396;8.546;2023-09-30T02:05:44;29.10;;;12.93;;
18188;SDS011;9219;50.396;8.546;2023-09-30T02:08:11;26.87;;;12.67;;
18188;SDS011;9219;50.396;8.546;2023-09-30T02:10:39;27.97;;;13.57;;
18188;SDS011;9219;50.396;8.546;2023-09-30T02:13:06;29.77;;;12.17;;
18188;SDS011;9219;50.396;8.546;2023-09-30T02:15:33;28.23;;;13.03;;
18188;SDS011;9219;50.396;8.546;2023-09-30T02:18:00;25.37;;;13.07;;
18188;SDS011;9219;50.396;8.546;2023-09-30T02:20:29;28.13;;;13.83;;
18188;SDS011;9219;50.396;8.546;2023-09-30T02:25:41;25.73;;;14.63;;
18188;SDS011;9219;50.396;8.546;2023-09-30T02:28:09;25.90;;;13.00;;
18188;SDS011;9219;50.396;8.546;2023-09-30T02:30:36;35.47;;;14.70;;
18188;SDS011;9219;50.396;8.546;2023-09-30T02:33:03;38.07;;;14.00;;
18188;SDS011;9219;50.396;8.546;2023-09-30T02:35:32;27.30;;;13.07;;
18188;SDS011;9219;50.396;8.546;2023-09-30T02:38:00;31.53;;;13.57;;
18188;SDS011;9219;50.396;8.546;2023-09-30T02:40:28;28.90;;;13.97;;
18188;SDS011;9219;50.396;8.546;2023-09-30T02:45:34;28.33;;;14.10;;
18188;SDS011;9219;50.396;8.546;2023-09-30T02:48:02;25.50;;;12.73;;
18188;SDS011;9219;50.396;8.546;2023-09-30T02:50:29;25.73;;;13.53;;
18188;SDS011;9219;50.396;8.546;2023-09-30T02:52:56;24.70;;;13.27;;
18188;SDS011;9219;50.396;8.546;2023-09-30T02:55:23;28.73;;;12.83;;
18188;SDS011;9219;50.396;8.546;2023-09-30T02:57:51;41.73;;;16.00;;
18188;SDS011;9219;50.396;8.546;2023-09-30T03:00:18;31.17;;;14.90;;
18188;SDS011;9219;50.396;8.546;2023-09-30T03:05:33;33.37;;;13.63;;
18188;SDS011;9219;50.396;8.546;2023-09-30T03:08:00;33.13;;;14.27;;
18188;SDS011;9219;50.396;8.546;2023-09-30T03:10:28;30.47;;;16.40;;
18188;SDS011;9219;50.396;8.546;2023-09-30T03:12:55;37.80;;;16.17;;
18188;SDS011;9219;50.396;8.546;2023-09-30T03:15:27;43.63;;;15.43;;
18188;SDS011;9219;50.396;8.546;2023-09-30T03:17:56;60.60;;;16.53;;
18188;SDS011;9219;50.396;8.546;2023-09-30T03:20:23;99.00;;;18.13;;
18188;SDS011;9219;50.396;8.546;2023-09-30T03:26:46;42.87;;;14.30;;
18188;SDS011;9219;50.396;8.546;2023-09-30T03:29:13;37.63;;;14.83;;
18188;SDS011;9219;50.396;8.546;2023-09-30T03:31:40;36.57;;;14.37;;
18188;SDS011;9219;50.396;8.546;2023-09-30T03:34:07;159.37;;;23.47;;
18188;SDS011;9219;50.396;8.546;2023-09-30T03:36:34;245.17;;;27.90;;
18188;SDS011;9219;50.396;8.546;2023-09-30T03:39:02;161.73;;;24.43;;
18188;SDS011;9219;50.396;8.546;2023-09-30T03:41:33;484.10;;;39.93;;
18188;SDS011;9219;50.396;8.546;2023-09-30T03:47:58;462.77;;;37.73;;
18188;SDS011;9219;50.396;8.546;2023-09-30T03:50:27;259.07;;;25.23;;
18188;SDS011;9219;50.396;8.546;2023-09-30T03:53:00;462.07;;;39.63;;
18188;SDS011;9219;50.396;8.546;2023-09-30T03:55:28;202.67;;;24.07;;
18188;SDS011;9219;50.396;8.546;2023-09-30T03:57:55;44.47;;;18.23;;
18188;SDS011;9219;50.396;8.546;2023-09-30T04:00:22;46.73;;;16.90;;
18188;SDS011;9219;50.396;8.546;2023-09-30T04:02:50;32.73;;;15.00;;
18188;SDS011;9219;50.396;8.546;2023-09-30T04:05:21;28.77;;;13.80;;
18188;SDS011;9219;50.396;8.546;2023-09-30T04:13:11;34.73;;;15.10;;
18188;SDS011;9219;50.396;8.546;2023-09-30T04:15:38;41.30;;;16.77;;
18188;SDS011;9219;50.396;8.546;2023-09-30T04:18:05;40.90;;;15.87;;
18188;SDS011;9219;50.396;8.546;2023-09-30T04:20:32;53.00;;;15.67;;
18188;SDS011;9219;50.396;8.546;2023-09-30T04:23:01;36.73;;;13.83;;
18188;SDS011;9219;50.396;8.546;2023-09-30T04:25:29;18.73;;;11.30;;
18188;SDS011;9219;50.396;8.546;2023-09-30T04:27:56;26.13;;;13.03;;
18188;SDS011;9219;50.396;8.546;2023-09-30T04:30:24;31.60;;;13.60;;
18188;SDS011;9219;50.396;8.546;2023-09-30T04:38:23;28.67;;;13.57;;
18188;SDS011;9219;50.396;8.546;2023-09-30T04:40:50;30.77;;;14.90;;
18188;SDS011;9219;50.396;8.546;2023-09-30T04:43:19;23.97;;;12.37;;
18188;SDS011;9219;50.396;8.546;2023-09-30T04:45:47;24.00;;;12.27;;
18188;SDS011;9219;50.396;8.546;2023-09-30T04:48:15;18.90;;;11.10;;
18188;SDS011;9219;50.396;8.546;2023-09-30T04:50:42;26.40;;;10.27;;
18188;SDS011;9219;50.396;8.546;2023-09-30T04:53:09;19.17;;;9.40;;
18188;SDS011;9219;50.396;8.546;2023-09-30T04:58:51;19.47;;;9.97;;
18188;SDS011;9219;50.396;8.546;2023-09-30T05:01:18;16.10;;;8.87;;
18188;SDS011;9219;50.396;8.546;2023-09-30T05:03:46;20.53;;;10.50;;
18188;SDS011;9219;50.396;8.546;2023-09-30T05:06:15;16.40;;;8.57;;
18188;SDS011;9219;50.396;8.546;2023-09-30T05:08:42;17.90;;;8.90;;
18188;SDS011;9219;50.396;8.546;2023-09-30T05:11:10;14.67;;;7.67;;
18188;SDS011;9219;50.396;8.546;2023-09-30T05:13:37;18.57;;;8.10;;
18188;SDS011;9219;50.396;8.546;2023-09-30T05:19:50;20.80;;;11.80;;
18188;SDS011;9219;50.396;8.546;2023-09-30T05:22:17;37.10;;;13.90;;
18188;SDS011;9219;50.396;8.546;2023-09-30T05:24:49;26.03;;;12.07;;
18188;SDS011;9219;50.396;8.546;2023-09-30T05:27:17;31.33;;;12.97;;
18188;SDS011;9219;50.396;8.546;2023-09-30T05:29:45;33.03;;;13.03;;
18188;SDS011;9219;50.396;8.546;2023-09-30T05:32:13;27.67;;;14.40;;
18188;SDS011;9219;50.396;8.546;2023-09-30T05:34:40;21.60;;;12.97;;
18188;SDS011;9219;50.396;8.546;2023-09-30T05:37:08;31.13;;;15.03;;
18188;SDS011;9219;50.396;8.546;2023-09-30T05:45:10;35.30;;;15.13;;
18188;SDS011;9219;50.396;8.546;2023-09-30T05:47:38;33.63;;;14.57;;
18188;SDS011;9219;50.396;8.546;2023-09-30T05:50:06;38.97;;;16.80;;
18188;SDS011;9219;50.396;8.546;2023-09-30T05:55:27;39.43;;;18.23;;
18188;SDS011;9219;50.396;8.546;2023-09-30T05:57:55;40.93;;;16.13;;
18188;SDS011;9219;50.396;8.546;2023-09-30T06:00:23;38.03;;;17.67;;
18188;SDS011;9219;50.396;8.546;2023-09-30T06:07:59;37.47;;;16.20;;
18188;SDS011;9219;50.396;8.546;2023-09-30T06:10:29;32.27;;;15.53;;
18188;SDS011;9219;50.396;8.546;2023-09-30T06:12:56;34.07;;;15.03;;
18188;SDS011;9219;50.396;8.546;2023-09-30T06:15:24;29.03;;;14.93;;
18188;SDS011;9219;50.396;8.546;2023-09-30T06:17:52;32.60;;;15.67;;
18188;SDS011;9219;50.396;8.546;2023-09-30T06:20:20;37.03;;;16.13;;
18188;SDS011;9219;50.396;8.546;2023-09-30T06:22:48;29.83;;;14.57;;
18188;SDS011;9219;50.396;8.546;2023-09-30T06:29:11;26.20;;;14.17;;
18188;SDS011;9219;50.396;8.546;2023-09-30T06:31:38;26.50;;;12.83;;
18188;SDS011;9219;50.396;8.546;2023-09-30T06:34:06;24.17;;;13.70;;
18188;SDS011;9219;50.396;8.546;2023-09-30T06:36:33;24.37;;;13.67;;
18188;SDS011;9219;50.396;8.546;2023-09-30T06:39:00;25.50;;;13.37;;
18188;SDS011;9219;50.396;8.546;2023-09-30T06:41:31;22.03;;;12.20;;
18188;SDS011;9219;50.396;8.546;2023-09-30T06:43:59;31.37;;;12.20;;
18188;SDS011;9219;50.396;8.546;2023-09-30T06:51:31;19.03;;;11.83;;
18188;SDS011;9219;50.396;8.546;2023-09-30T06:53:58;17.57;;;11.17;;
18188;SDS011;9219;50.396;8.546;2023-09-30T06:56:26;17.03;;;9.60;;
18188;SDS011;9219;50.396;8.546;2023-09-30T06:58:53;16.20;;;10.30;;
18188;SDS011;9219;50.396;8.546;2023-09-30T07:01:24;19.97;;;9.73;;
18188;SDS011;9219;50.396;8.546;2023-09-30T07:03:51;16.47;;;9.03;;
18188;SDS011;9219;50.396;8.546;2023-09-30T07:06:22;18.33;;;9.07;;
18188;SDS011;9219;50.396;8.546;2023-09-30T07:08:50;15.70;;;9.23;;
18188;SDS011;9219;50.396;8.546;2023-09-30T07:11:59;17.63;;;9.63;;
18188;SDS011;9219;50.396;8.546;2023-09-30T07:14:26;16.17;;;8.93;;
18188;SDS011;9219;50.396;8.546;2023-09-30T07:16:53;19.37;;;10.17;;
18188;SDS011;9219;50.396;8.546;2023-09-30T07:19:20;13.33;;;7.67;;
18188;SDS011;9219;50.396;8.546;2023-09-30T07:21:47;16.70;;;9.63;;
18188;SDS011;9219;50.396;8.546;2023-09-30T07:24:29;12.80;;;8.53;;
18188;SDS011;9219;50.396;8.546;2023-09-30T07:26:56;14.57;;;8.43;;
18188;SDS011;9219;50.396;8.546;2023-09-30T07:34:28;15.63;;;7.50;;
18188;SDS011;9219;50.396;8.546;2023-09-30T07:36:56;11.57;;;6.77;;
18188;SDS011;9219;50.396;8.546;2023-09-30T07:39:23;13.80;;;6.90;;
18188;SDS011;9219;50.396;8.546;2023-09-30T07:41:50;12.93;;;5.63;;
18188;SDS011;9219;50.396;8.546;2023-09-30T07:44:17;15.07;;;6.70;;
18188;SDS011;9219;50.396;8.546;2023-09-30T07:46:44;12.70;;;6.17;;
18188;SDS011;9219;50.396;8.546;2023-09-30T07:49:11;11.43;;;6.00;;
18188;SDS011;9219;50.396;8.546;2023-09-30T07:54:26;10.10;;;5.43;;
18188;SDS011;9219;50.396;8.546;2023-09-30T07:56:57;13.83;;;5.63;;
18188;SDS011;9219;50.396;8.546;2023-09-30T07:59:25;8.70;;;5.33;;
18188;SDS011;9219;50.396;8.546;2023-09-30T08:01:52;12.00;;;5.10;;
18188;SDS011;9219;50.396;8.546;2023-09-30T08:04:19;7.70;;;5.03;;
18188;SDS011;9219;50.396;8.546;2023-09-30T08:06:47;9.03;;;5.40;;
18188;SDS011;9219;50.396;8.546;2023-09-30T08:09:16;11.30;;;7.17;;
18188;SDS011;9219;50.396;8.546;2023-09-30T08:15:22;17.53;;;6.47;;
18188;SDS011;9219;50.396;8.546;2023-09-30T08:17:50;10.90;;;6.73;;
18188;SDS011;9219;50.396;8.546;2023-09-30T08:20:17;9.20;;;5.17;;
18188;SDS011;9219;50.396;8.546;2023-09-30T08:22:44;11.40;;;5.07;;
18188;SDS011;9219;50.396;8.546;2023-09-30T08:25:11;10.17;;;4.63;;
18188;SDS011;9219;50.396;8.546;2023-09-30T08:27:38;12.53;;;5.63;;
18188;SDS011;9219;50.396;8.546;2023-09-30T08:30:06;11.13;;;5.77;;
18188;SDS011;9219;50.396;8.546;2023-09-30T08:32:35;10.43;;;5.97;;
18188;SDS011;9219;50.396;8.546;2023-09-30T08:40:10;8.43;;;3.87;;
18188;SDS011;9219;50.396;8.546;2023-09-30T08:42:38;5.57;;;2.97;;
18188;SDS011;9219;50.396;8.546;2023-09-30T08:45:05;9.00;;;3.53;;
18188;SDS011;9219;50.396;8.546;2023-09-30T08:47:40;11.97;;;4.63;;
18188;SDS011;9219;50.396;8.546;2023-09-30T08:50:07;14.63;;;5.57;;
18188;SDS011;9219;50.396;8.546;2023-09-30T08:52:36;9.20;;;5.63;;
18188;SDS011;9219;50.396;8.546;2023-09-30T08:55:07;11.37;;;4.90;;
18188;SDS011;9219;50.396;8.546;2023-09-30T09:03:56;19.77;;;6.27;;
18188;SDS011;9219;50.396;8.546;2023-09-30T09:06:25;17.27;;;5.90;;
18188;SDS011;9219;50.396;8.546;2023-09-30T09:08:52;11.83;;;5.70;;
18188;SDS011;9219;50.396;8.546;2023-09-30T09:11:19;11.03;;;5.70;;
18188;SDS011;9219;50.396;8.546;2023-09-30T09:13:47;10.27;;;4.87;;
18188;SDS011;9219;50.396;8.546;2023-09-30T09:16:16;12.57;;;4.70;;
18188;SDS011;9219;50.396;8.546;2023-09-30T09:18:45;11.07;;;4.80;;
18188;SDS011;9219;50.396;8.546;2023-09-30T09:26:24;6.30;;;3.40;;
18188;SDS011;9219;50.396;8.546;2023-09-30T09:28:56;10.07;;;3.67;;
18188;SDS011;9219;50.396;8.546;2023-09-30T09:31:25;8.73;;;3.63;;
18188;SDS011;9219;50.396;8.546;2023-09-30T09:33:53;10.87;;;3.53;;
18188;SDS011;9219;50.396;8.546;2023-09-30T09:36:21;7.13;;;3.60;;
18188;SDS011;9219;50.396;8.546;2023-09-30T09:39:04;8.23;;;3.77;;
18188;SDS011;9219;50.396;8.546;2023-09-30T09:41:32;9.90;;;3.60;;
18188;SDS011;9219;50.396;8.546;2023-09-30T09:46:38;8.70;;;4.20;;
18188;SDS011;9219;50.396;8.546;2023-09-30T09:49:06;10.33;;;3.77;;
18188;SDS011;9219;50.396;8.546;2023-09-30T09:51:33;7.73;;;3.33;;
18188;SDS011;9219;50.396;8.546;2023-09-30T09:54:00;9.87;;;3.20;;
18188;SDS011;9219;50.396;8.546;2023-09-30T09:56:30;7.63;;;2.50;;
18188;SDS011;9219;50.396;8.546;2023-09-30T09:59:00;7.57;;;3.70;;
18188;SDS011;9219;50.396;8.546;2023-09-30T10:01:29;6.83;;;3.37;;
18188;SDS011;9219;50.396;8.546;2023-09-30T10:03:58;5.57;;;3.00;;
18188;SDS011;9219;50.396;8.546;2023-09-30T10:06:51;9.60;;;2.47;;
18188;SDS011;9219;50.396;8.546;2023-09-30T10:09:21;4.20;;;2.37;;
18188;SDS011;9219;50.396;8.546;2023-09-30T10:11:49;4.50;;;2.37;;
18188;SDS011;9219;50.396;8.546;2023-09-30T10:14:29;4.43;;;2.37;;
18188;SDS011;9219;50.396;8.546;2023-09-30T10:16:58;6.37;;;2.50;;
18188;SDS011;9219;50.396;8.546;2023-09-30T10:19:25;5.70;;;2.60;;
18188;SDS011;9219;50.396;8.546;2023-09-30T10:30:10;8.27;;;2.00;;
18188;SDS011;9219;50.396;8.546;2023-09-30T10:35:42;7.53;;;3.40;;
18188;SDS011;9219;50.396;8.546;2023-09-30T10:41:06;6.17;;;3.37;;
18188;SDS011;9219;50.396;8.546;2023-09-30T10:43:38;8.10;;;2.80;;
18188;SDS011;9219;50.396;8.546;2023-09-30T10:54:31;10.13;;;2.67;;
18188;SDS011;9219;50.396;8.546;2023-09-30T10:56:59;4.90;;;2.03;;
18188;SDS011;9219;50.396;8.546;2023-09-30T10:59:27;4.43;;;1.27;;
18188;SDS011;9219;50.396;8.546;2023-09-30T11:01:56;5.93;;;2.13;;
18188;SDS011;9219;50.396;8.546;2023-09-30T11:04:23;3.27;;;1.47;;
18188;SDS011;9219;50.396;8.546;2023-09-30T11:06:53;4.47;;;1.93;;
18188;SDS011;9219;50.396;8.546;2023-09-30T11:09:21;5.77;;;2.10;;
18188;SDS011;9219;50.396;8.546;2023-09-30T11:16:54;7.83;;;2.23;;
18188;SDS011;9219;50.396;8.546;2023-09-30T11:19:24;2.77;;;1.40;;
18188;SDS011;9219;50.396;8.546;2023-09-30T11:21:52;3.77;;;1.37;;
18188;SDS011;9219;50.396;8.546;2023-09-30T11:24:21;2.23;;;1.40;;
18188;SDS011;9219;50.396;8.546;2023-09-30T11:26:52;8.80;;;2.37;;
18188;SDS011;9219;50.396;8.546;2023-09-30T11:29:20;2.80;;;1.40;;
18188;SDS011;9219;50.396;8.546;2023-09-30T11:31:48;5.33;;;1.63;;
18188;SDS011;9219;50.396;8.546;2023-09-30T11:37:21;5.90;;;1.30;;
18188;SDS011;9219;50.396;8.546;2023-09-30T11:39:48;4.27;;;1.67;;
18188;SDS011;9219;50.396;8.546;2023-09-30T11:42:16;2.67;;;1.30;;
18188;SDS011;9219;50.396;8.546;2023-09-30T11:44:45;4.97;;;1.70;;
18188;SDS011;9219;50.396;8.546;2023-09-30T11:47:13;2.97;;;1.20;;
18188;SDS011;9219;50.396;8.546;2023-09-30T11:49:42;4.03;;;1.50;;
18188;SDS011;9219;50.396;8.546;2023-09-30T11:52:11;3.20;;;1.40;;
18188;SDS011;9219;50.396;8.546;2023-09-30T11:57:22;5.80;;;1.50;;
18188;SDS011;9219;50.396;8.546;2023-09-30T11:59:49;3.03;;;1.53;;
18188;SDS011;9219;50.396;8.546;2023-09-30T12:02:17;3.57;;;1.20;;
18188;SDS011;9219;50.396;8.546;2023-09-30T12:04:45;2.00;;;1.20;;
18188;SDS011;9219;50.396;8.546;2023-09-30T12:07:14;5.23;;;1.80;;
18188;SDS011;9219;50.396;8.546;2023-09-30T12:09:42;5.90;;;1.80;;
18188;SDS011;9219;50.396;8.546;2023-09-30T12:12:09;2.93;;;1.23;;
18188;SDS011;9219;50.396;8.546;2023-09-30T12:19:43;3.37;;;1.20;;
18188;SDS011;9219;50.396;8.546;2023-09-30T12:22:12;2.17;;;1.60;;
18188;SDS011;9219;50.396;8.546;2023-09-30T12:24:39;3.73;;;1.37;;
18188;SDS011;9219;50.396;8.546;2023-09-30T12:27:07;3.50;;;1.40;;
18188;SDS011;9219;50.396;8.546;2023-09-30T12:29:34;5.53;;;2.10;;
18188;SDS011;9219;50.396;8.546;2023-09-30T12:32:04;2.97;;;1.30;;
18188;SDS011;9219;50.396;8.546;2023-09-30T12:34:32;2.90;;;1.27;;
18188;SDS011;9219;50.396;8.546;2023-09-30T12:39:41;2.97;;;1.53;;
18188;SDS011;9219;50.396;8.546;2023-09-30T12:42:10;2.93;;;1.77;;
18188;SDS011;9219;50.396;8.546;2023-09-30T12:44:38;6.20;;;2.00;;
18188;SDS011;9219;50.396;8.546;2023-09-30T12:47:05;3.57;;;1.93;;
18188;SDS011;9219;50.396;8.546;2023-09-30T12:49:32;4.13;;;1.87;;
18188;SDS011;9219;50.396;8.546;2023-09-30T12:51:59;2.93;;;1.87;;
18188;SDS011;9219;50.396;8.546;2023-09-30T12:54:27;5.67;;;2.30;;
18188;SDS011;9219;50.396;8.546;2023-09-30T13:00:37;3.57;;;2.33;;
18188;SDS011;9219;50.396;8.546;2023-09-30T13:03:05;6.63;;;2.27;;
18188;SDS011;9219;50.396;8.546;2023-09-30T13:05:33;6.53;;;2.20;;
18188;SDS011;9219;50.396;8.546;2023-09-30T13:08:00;3.87;;;1.90;;
18188;SDS011;9219;50.396;8.546;2023-09-30T13:10:28;4.90;;;2.10;;
18188;SDS011;9219;50.396;8.546;2023-09-30T13:12:56;2.80;;;1.73;;
18188;SDS011;9219;50.396;8.546;2023-09-30T13:15:23;5.20;;;1.90;;
18188;SDS011;9219;50.396;8.546;2023-09-30T13:20:35;3.73;;;1.97;;
18188;SDS011;9219;50.396;8.546;2023-09-30T13:23:03;4.07;;;1.80;;
18188;SDS011;9219;50.396;8.546;2023-09-30T13:25:30;3.10;;;1.40;;
18188;SDS011;9219;50.396;8.546;2023-09-30T13:27:57;3.97;;;1.70;;
18188;SDS011;9219;50.396;8.546;2023-09-30T13:30:25;4.83;;;2.13;;
18188;SDS011;9219;50.396;8.546;2023-09-30T13:32:52;2.00;;;1.57;;
18188;SDS011;9219;50.396;8.546;2023-09-30T13:35:19;2.63;;;1.87;;
18188;SDS011;9219;50.396;8.546;2023-09-30T13:37:47;4.07;;;1.90;;
18188;SDS011;9219;50.396;8.546;2023-09-30T13:45:19;4.10;;;2.50;;
18188;SDS011;9219;50.396;8.546;2023-09-30T13:47:46;4.57;;;2.07;;
18188;SDS011;9219;50.396;8.546;2023-09-30T13:50:13;4.97;;;1.63;;
18188;SDS011;9219;50.396;8.546;2023-09-30T13:52:43;3.57;;;1.63;;
18188;SDS011;9219;50.396;8.546;2023-09-30T13:55:10;9.30;;;2.53;;
18188;SDS011;9219;50.396;8.546;2023-09-30T13:57:44;3.80;;;1.90;;
18188;SDS011;9219;50.396;8.546;2023-09-30T14:00:11;5.87;;;1.97;;
18188;SDS011;9219;50.396;8.546;2023-09-30T14:06:15;2.53;;;1.50;;
18188;SDS011;9219;50.396;8.546;2023-09-30T14:08:43;2.70;;;1.70;;
18188;SDS011;9219;50.396;8.546;2023-09-30T14:11:10;3.57;;;1.90;;
18188;SDS011;9219;50.396;8.546;2023-09-30T14:13:38;2.80;;;2.00;;
18188;SDS011;9219;50.396;8.546;2023-09-30T14:16:06;2.03;;;1.30;;
18188;SDS011;9219;50.396;8.546;2023-09-30T14:18:33;5.13;;;1.50;;
18188;SDS011;9219;50.396;8.546;2023-09-30T14:21:02;2.77;;;1.60;;
18188;SDS011;9219;50.396;8.546;2023-09-30T14:30:06;3.40;;;1.43;;
18188;SDS011;9219;50.396;8.546;2023-09-30T14:32:34;4.30;;;2.10;;
18188;SDS011;9219;50.396;8.546;2023-09-30T14:35:04;1.93;;;1.30;;
18188;SDS011;9219;50.396;8.546;2023-09-30T14:37:32;3.60;;;1.20;;
18188;SDS011;9219;50.396;8.546;2023-09-30T14:39:59;2.03;;;0.90;;
18188;SDS011;9219;50.396;8.546;2023-09-30T14:42:26;1.80;;;1.27;;
18188;SDS011;9219;50.396;8.546;2023-09-30T14:44:56;2.83;;;1.13;;
18188;SDS011;9219;50.396;8.546;2023-09-30T14:50:04;6.47;;;1.63;;
18188;SDS011;9219;50.396;8.546;2023-09-30T14:52:33;3.87;;;1.33;;
18188;SDS011;9219;50.396;8.546;2023-09-30T14:55:00;3.50;;;1.77;;
18188;SDS011;9219;50.396;8.546;2023-09-30T14:57:27;1.97;;;1.53;;
18188;SDS011;9219;50.396;8.546;2023-09-30T14:59:57;4.87;;;1.60;;
18188;SDS011;9219;50.396;8.546;2023-09-30T15:02:24;3.47;;;2.03;;
18188;SDS011;9219;50.396;8.546;2023-09-30T15:04:52;6.33;;;2.20;;
18188;SDS011;9219;50.396;8.546;2023-09-30T15:07:20;2.63;;;1.47;;
18188;SDS011;9219;50.396;8.546;2023-09-30T15:14:52;2.60;;;1.63;;
18188;SDS011;9219;50.396;8.546;2023-09-30T15:17:20;8.27;;;1.87;;
18188;SDS011;9219;50.396;8.546;2023-09-30T15:19:47;10.03;;;2.13;;
18188;SDS011;9219;50.396;8.546;2023-09-30T15:22:14;2.73;;;1.57;;
18188;SDS011;9219;50.396;8.546;2023-09-30T15:24:42;6.53;;;2.17;;
18188;SDS011;9219;50.396;8.546;2023-09-30T15:27:09;2.97;;;1.37;;
18188;SDS011;9219;50.396;8.546;2023-09-30T15:29:36;4.07;;;1.70;;
18188;SDS011;9219;50.396;8.546;2023-09-30T15:32:04;4.00;;;2.17;;
18188;SDS011;9219;50.396;8.546;2023-09-30T15:35:36;4.63;;;2.07;;
18188;SDS011;9219;50.396;8.546;2023-09-30T15:38:03;6.97;;;2.50;;
18188;SDS011;9219;50.396;8.546;2023-09-30T15:40:30;5.10;;;2.00;;
18188;SDS011;9219;50.396;8.546;2023-09-30T15:42:58;6.07;;;2.07;;
18188;SDS011;9219;50.396;8.546;2023-09-30T15:45:26;5.77;;;2.00;;
18188;SDS011;9219;50.396;8.546;2023-09-30T15:47:53;4.17;;;1.80;;
18188;SDS011;9219;50.396;8.546;2023-09-30T15:50:21;5.93;;;2.57;;
18188;SDS011;9219;50.396;8.546;2023-09-30T15:52:50;3.47;;;1.87;;
18188;SDS011;9219;50.396;8.546;2023-09-30T16:00:21;5.13;;;2.00;;
18188;SDS011;9219;50.396;8.546;2023-09-30T16:02:49;4.83;;;1.77;;
18188;SDS011;9219;50.396;8.546;2023-09-30T16:05:16;5.70;;;2.20;;
18188;SDS011;9219;50.396;8.546;2023-09-30T16:07:43;4.73;;;2.10;;
18188;SDS011;9219;50.396;8.546;2023-09-30T16:10:10;6.00;;;2.50;;
18188;SDS011;9219;50.396;8.546;2023-09-30T16:12:37;3.70;;;2.07;;
18188;SDS011;9219;50.396;8.546;2023-09-30T16:15:05;2.30;;;1.97;;
18188;SDS011;9219;50.396;8.546;2023-09-30T16:17:36;6.77;;;2.23;;
18188;SDS011;9219;50.396;8.546;2023-09-30T16:25:08;4.40;;;2.27;;
18188;SDS011;9219;50.396;8.546;2023-09-30T16:27:36;5.90;;;2.80;;
18188;SDS011;9219;50.396;8.546;2023-09-30T16:30:07;5.30;;;2.40;;
18188;SDS011;9219;50.396;8.546;2023-09-30T16:32:34;4.40;;;2.27;;
18188;SDS011;9219;50.396;8.546;2023-09-30T16:37:55;3.63;;;2.63;;
18188;SDS011;9219;50.396;8.546;2023-09-30T16:43:01;6.17;;;2.30;;
18188;SDS011;9219;50.396;8.546;2023-09-30T16:45:28;8.10;;;2.80;;
18188;SDS011;9219;50.396;8.546;2023-09-30T16:47:55;8.67;;;3.00;;
18188;SDS011;9219;50.396;8.546;2023-09-30T16:50:22;4.37;;;2.70;;
18188;SDS011;9219;50.396;8.546;2023-09-30T16:52:53;7.87;;;2.70;;
18188;SDS011;9219;50.396;8.546;2023-09-30T16:55:20;4.67;;;2.57;;
18188;SDS011;9219;50.396;8.546;2023-09-30T16:57:48;7.37;;;2.83;;
18188;SDS011;9219;50.396;8.546;2023-09-30T17:00:17;7.33;;;2.83;;
18188;SDS011;9219;50.396;8.546;2023-09-30T17:08:18;6.17;;;2.77;;
18188;SDS011;9219;50.396;8.546;2023-09-30T17:10:45;6.63;;;3.10;;
18188;SDS011;9219;50.396;8.546;2023-09-30T17:13:12;4.60;;;2.90;;
18188;SDS011;9219;50.396;8.546;2023-09-30T17:15:42;6.53;;;3.00;;
18188;SDS011;9219;50.396;8.546;2023-09-30T17:18:09;7.13;;;3.33;;
18188;SDS011;9219;50.396;8.546;2023-09-30T17:20:40;7.17;;;3.50;;
18188;SDS011;9219;50.396;8.546;2023-09-30T17:23:10;8.70;;;4.10;;
18188;SDS011;9219;50.396;8.546;2023-09-30T17:28:30;7.10;;;3.50;;
18188;SDS011;9219;50.396;8.546;2023-09-30T17:31:00;4.00;;;3.00;;
18188;SDS011;9219;50.396;8.546;2023-09-30T17:33:29;8.50;;;3.77;;
18188;SDS011;9219;50.396;8.546;2023-09-30T17:36:00;9.23;;;4.10;;
18188;SDS011;9219;50.396;8.546;2023-09-30T17:38:28;6.50;;;3.07;;
18188;SDS011;9219;50.396;8.546;2023-09-30T17:40:58;7.67;;;4.07;;
18188;SDS011;9219;50.396;8.546;2023-09-30T17:43:31;10.47;;;3.67;;
18188;SDS011;9219;50.396;8.546;2023-09-30T17:48:41;8.77;;;4.17;;
18188;SDS011;9219;50.396;8.546;2023-09-30T17:51:11;7.87;;;3.73;;
18188;SDS011;9219;50.396;8.546;2023-09-30T17:53:40;6.23;;;3.27;;
18188;SDS011;9219;50.396;8.546;2023-09-30T17:56:12;6.83;;;3.40;;
18188;SDS011;9219;50.396;8.546;2023-09-30T17:58:40;9.87;;;4.27;;
18188;SDS011;9219;50.396;8.546;2023-09-30T18:01:07;8.63;;;3.77;;
18188;SDS011;9219;50.396;8.546;2023-09-30T18:03:34;9.97;;;3.83;;
18188;SDS011;9219;50.396;8.546;2023-09-30T18:12:27;6.50;;;3.60;;
18188;SDS011;9219;50.396;8.546;2023-09-30T18:14:54;6.83;;;3.97;;
18188;SDS011;9219;50.396;8.546;2023-09-30T18:17:22;6.53;;;3.23;;
18188;SDS011;9219;50.396;8.546;2023-09-30T18:19:49;8.83;;;3.27;;
18188;SDS011;9219;50.396;8.546;2023-09-30T18:22:16;10.47;;;4.37;;
18188;SDS011;9219;50.396;8.546;2023-09-30T18:24:43;7.47;;;4.03;;
18188;SDS011;9219;50.396;8.546;2023-09-30T18:27:10;9.53;;;4.63;;
18188;SDS011;9219;50.396;8.546;2023-09-30T18:29:38;8.70;;;4.33;;
18188;SDS011;9219;50.396;8.546;2023-09-30T18:37:10;10.13;;;4.80;;